createdAt,value
2022-12-06T00:02:43.371Z,24.60
2022-12-06T00:05:33.429Z,24.75
2022-12-06T00:08:23.498Z,23.70
2022-12-06T00:11:16.271Z,22.08
2022-12-06T00:14:08.775Z,22.55
2022-12-06T00:16:58.831Z,21.80
2022-12-06T00:19:49.275Z,24.08
2022-12-06T00:22:44.668Z,22.10
2022-12-06T00:25:35.922Z,23.63
2022-12-06T00:28:26.018Z,23.67
2022-12-06T00:31:18.307Z,21.63
2022-12-06T00:34:08.573Z,21.40
2022-12-06T00:36:58.638Z,20.58
2022-12-06T00:39:48.781Z,19.40
2022-12-06T00:42:39.116Z,20.35
2022-12-06T00:45:29.332Z,21.25
2022-12-06T00:48:19.868Z,19.80
2022-12-06T00:51:10.783Z,18.85
2022-12-06T00:54:00.974Z,19.13
2022-12-06T00:56:51.087Z,21.52
2022-12-06T00:59:41.094Z,23.02
2022-12-06T01:02:31.062Z,22.83
2022-12-06T01:05:21.002Z,21.88
2022-12-06T01:08:11.990Z,22.40
2022-12-06T01:11:02.690Z,21.02
2022-12-06T01:13:53.117Z,21.73
2022-12-06T01:16:43.225Z,21.02
2022-12-06T01:19:33.465Z,19.02
2022-12-06T01:22:23.570Z,19.83
2022-12-06T01:25:13.399Z,18.75
2022-12-06T01:28:03.756Z,17.05
2022-12-06T01:30:53.714Z,18.00
2022-12-06T01:33:44.218Z,17.73
2022-12-06T01:36:34.136Z,16.40
2022-12-06T01:39:24.262Z,18.08
2022-12-06T01:42:16.035Z,17.77
2022-12-06T01:45:06.576Z,17.50
2022-12-06T01:47:56.643Z,19.02
2022-12-06T01:50:46.880Z,18.88
2022-12-06T01:53:38.554Z,16.65
2022-12-06T01:56:28.731Z,18.00
2022-12-06T01:59:20.966Z,17.45
2022-12-06T02:02:11.461Z,17.48
2022-12-06T02:05:03.545Z,16.67
2022-12-06T02:07:54.754Z,16.92
2022-12-06T02:10:45.186Z,17.90
2022-12-06T02:13:36.318Z,16.08
2022-12-06T02:16:36.009Z,15.95
2022-12-06T02:19:54.036Z,15.65
2022-12-06T02:23:05.357Z,17.45
2022-12-06T02:26:01.101Z,16.25
2022-12-06T02:28:51.938Z,17.83
2022-12-06T02:31:50.365Z,16.60
2022-12-06T02:34:52.490Z,19.10
2022-12-06T02:38:02.842Z,17.90
2022-12-06T02:41:04.171Z,21.73
2022-12-06T02:44:00.024Z,23.35
2022-12-06T02:46:51.407Z,23.33
2022-12-06T02:49:46.537Z,23.20
2022-12-06T02:52:41.471Z,22.38
2022-12-06T02:55:33.142Z,21.55
2022-12-06T02:58:23.674Z,22.30
2022-12-06T03:01:13.484Z,20.17
2022-12-06T03:04:34.883Z,20.85
2022-12-06T03:07:35.736Z,20.70
2022-12-06T03:10:40.837Z,21.33
2022-12-06T03:13:42.497Z,21.30
2022-12-06T03:16:54.061Z,21.23
2022-12-06T03:19:50.045Z,22.40
2022-12-06T03:22:46.474Z,21.23
2022-12-06T03:25:37.642Z,21.35
2022-12-06T03:28:29.868Z,20.65
2022-12-06T03:31:22.849Z,20.15
2022-12-06T03:34:19.314Z,19.70
2022-12-06T03:37:14.769Z,20.55
2022-12-06T03:40:19.352Z,20.52
2022-12-06T03:43:10.223Z,24.05
2022-12-06T03:46:18.849Z,25.90
2022-12-06T03:49:17.478Z,24.73
2022-12-06T03:52:08.901Z,27.35
2022-12-06T03:54:58.776Z,23.25
2022-12-06T03:57:48.634Z,23.45
2022-12-06T04:00:39.183Z,23.80
2022-12-06T04:03:29.294Z,23.02
2022-12-06T04:06:19.991Z,23.27
2022-12-06T04:09:28.770Z,20.98
2022-12-06T04:12:38.090Z,21.23
2022-12-06T04:15:37.902Z,19.20
2022-12-06T04:18:28.745Z,20.25
2022-12-06T04:21:44.939Z,19.20
2022-12-06T04:24:34.739Z,19.88
2022-12-06T04:27:43.761Z,19.02
2022-12-06T04:30:52.566Z,18.52
2022-12-06T04:34:01.422Z,18.10
2022-12-06T04:37:10.880Z,17.80
2022-12-06T04:40:01.281Z,18.13
2022-12-06T04:43:09.795Z,21.15
2022-12-06T04:45:59.911Z,23.95
2022-12-06T04:48:49.776Z,24.83
2022-12-06T04:51:39.756Z,24.20
2022-12-06T04:54:30.643Z,24.00
2022-12-06T04:57:20.856Z,24.08
2022-12-06T05:00:11.321Z,23.83
2022-12-06T05:03:01.389Z,23.48
2022-12-06T05:05:52.188Z,21.70
2022-12-06T05:08:42.371Z,19.75
2022-12-06T05:11:32.422Z,19.20
2022-12-06T05:14:22.298Z,18.17
2022-12-06T05:17:12.495Z,18.35
2022-12-06T05:20:02.609Z,16.92
2022-12-06T05:22:52.923Z,16.17
2022-12-06T05:25:43.804Z,17.40
2022-12-06T05:28:35.009Z,16.65
2022-12-06T05:31:26.003Z,17.15
2022-12-06T05:34:16.307Z,16.27
2022-12-06T05:37:06.488Z,15.85
2022-12-06T05:39:56.328Z,16.15
2022-12-06T05:42:46.299Z,15.88
2022-12-06T05:45:37.244Z,16.63
2022-12-06T05:48:27.770Z,17.15
2022-12-06T05:51:18.019Z,17.23
2022-12-06T05:54:08.450Z,16.73
2022-12-06T05:56:58.463Z,17.13
2022-12-06T05:59:48.430Z,16.67
2022-12-06T06:02:39.067Z,16.58
2022-12-06T06:05:30.232Z,16.83
2022-12-06T06:08:20.133Z,17.95
2022-12-06T06:11:10.382Z,16.52
2022-12-06T06:14:00.093Z,18.42
2022-12-06T06:16:52.145Z,17.48
2022-12-06T06:19:44.784Z,16.55
2022-12-06T06:22:40.234Z,15.82
2022-12-06T06:25:30.329Z,17.65
2022-12-06T06:28:20.227Z,16.15
2022-12-06T06:31:10.219Z,18.23
2022-12-06T06:34:00.628Z,19.08
2022-12-06T06:36:50.943Z,17.17
2022-12-06T06:39:40.990Z,16.95
2022-12-06T06:42:31.586Z,16.98
2022-12-06T06:45:28.152Z,17.38
2022-12-06T06:48:18.756Z,18.75
2022-12-06T06:51:11.566Z,17.38
2022-12-06T06:54:01.789Z,16.98
2022-12-06T06:56:51.858Z,16.33
2022-12-06T06:59:42.996Z,17.30
2022-12-06T07:02:33.405Z,14.65
2022-12-06T07:05:24.072Z,15.32
2022-12-06T07:08:14.070Z,17.38
2022-12-06T07:11:04.523Z,16.73
2022-12-06T07:13:54.572Z,16.08
2022-12-06T07:16:44.497Z,17.30
2022-12-06T07:19:34.723Z,16.23
2022-12-06T07:22:24.586Z,15.82
2022-12-06T07:25:14.381Z,15.63
2022-12-06T07:28:04.852Z,14.82
2022-12-06T07:30:55.055Z,15.55
2022-12-06T07:33:46.029Z,15.15
2022-12-06T07:36:35.961Z,15.95
2022-12-06T07:39:26.676Z,16.08
2022-12-06T07:42:35.631Z,16.75
2022-12-06T07:45:26.721Z,15.95
2022-12-06T07:48:16.551Z,16.80
2022-12-06T07:51:06.974Z,17.02
2022-12-06T07:53:57.656Z,18.20
2022-12-06T07:56:47.834Z,17.35
2022-12-06T07:59:38.066Z,17.60
2022-12-06T08:02:29.093Z,16.38
2022-12-06T08:05:18.999Z,14.02
2022-12-06T08:08:09.095Z,13.90
2022-12-06T08:11:04.458Z,13.80
2022-12-06T08:13:54.990Z,13.93
2022-12-06T08:16:45.424Z,15.25
2022-12-06T08:19:35.494Z,14.13
2022-12-06T08:22:25.418Z,14.63
2022-12-06T08:25:15.175Z,16.73
2022-12-06T08:28:05.480Z,17.10
2022-12-06T08:31:01.405Z,16.17
2022-12-06T08:33:53.331Z,14.95
2022-12-06T08:36:43.817Z,14.55
2022-12-06T08:39:33.986Z,14.55
2022-12-06T08:42:25.427Z,15.20
2022-12-06T08:45:15.820Z,14.88
2022-12-06T08:48:06.174Z,13.80
2022-12-06T08:50:57.061Z,14.57
2022-12-06T08:53:47.449Z,13.73
2022-12-06T08:56:38.138Z,12.65
2022-12-06T08:59:29.114Z,11.85
2022-12-06T09:02:19.250Z,12.30
2022-12-06T09:05:09.778Z,13.85
2022-12-06T09:08:00.065Z,14.23
2022-12-06T09:10:50.272Z,13.98
2022-12-06T09:13:40.579Z,15.20
2022-12-06T09:16:31.125Z,16.65
2022-12-06T09:19:21.587Z,15.57
2022-12-06T09:22:11.613Z,16.45
2022-12-06T09:25:01.479Z,16.88
2022-12-06T09:27:52.999Z,17.30
2022-12-06T09:30:43.024Z,15.95
2022-12-06T09:33:33.826Z,16.38
2022-12-06T09:36:26.829Z,16.63
2022-12-06T09:39:50.680Z,16.13
2022-12-06T09:42:52.870Z,14.48
2022-12-06T09:46:20.464Z,15.35
2022-12-06T09:49:27.689Z,15.75
2022-12-06T09:52:35.160Z,16.77
2022-12-06T09:55:44.214Z,15.30
2022-12-06T09:59:02.430Z,14.35
2022-12-06T10:02:06.062Z,14.57
2022-12-06T10:05:19.642Z,14.48
2022-12-06T10:08:21.767Z,14.67
2022-12-06T10:11:55.692Z,14.80
2022-12-06T10:15:03.790Z,14.60
2022-12-06T10:18:17.285Z,15.02
2022-12-06T10:21:35.286Z,16.73
2022-12-06T10:24:44.197Z,13.68
2022-12-06T10:27:50.208Z,12.88
2022-12-06T10:30:50.576Z,12.15
2022-12-06T10:34:09.994Z,10.65
2022-12-06T10:37:37.674Z,9.80
2022-12-06T10:40:52.991Z,8.35
2022-12-06T10:44:04.599Z,6.88
2022-12-06T10:47:06.271Z,7.78
2022-12-06T10:50:02.943Z,6.47
2022-12-06T10:53:01.998Z,7.00
2022-12-06T10:56:09.767Z,7.07
2022-12-06T10:59:10.303Z,6.60
2022-12-06T11:02:15.966Z,7.18
2022-12-06T11:05:28.255Z,6.18
2022-12-06T11:08:42.308Z,7.22
2022-12-06T11:11:35.386Z,7.40
2022-12-06T11:14:38.144Z,7.30
2022-12-06T11:17:32.714Z,7.75
2022-12-06T11:20:29.938Z,7.90
2022-12-06T11:23:46.623Z,7.45
2022-12-06T11:26:52.314Z,7.25
2022-12-06T11:29:44.827Z,7.15
2022-12-06T11:32:35.085Z,8.25
2022-12-06T11:35:27.681Z,7.13
2022-12-06T11:38:18.148Z,7.45
2022-12-06T11:41:13.132Z,7.13
2022-12-06T11:44:03.432Z,6.32
2022-12-06T11:46:56.856Z,6.18
2022-12-06T11:49:51.332Z,6.45
2022-12-06T11:53:26.879Z,5.68
2022-12-06T11:56:24.746Z,6.00
2022-12-06T11:59:22.402Z,5.93
2022-12-06T12:02:31.275Z,5.57
2022-12-06T12:05:30.865Z,5.25
2022-12-06T12:08:31.138Z,5.50
2022-12-06T12:11:26.979Z,5.53
2022-12-06T12:14:23.856Z,6.05
2022-12-06T12:17:20.464Z,6.30
2022-12-06T12:20:21.336Z,5.85
2022-12-06T12:23:38.441Z,5.63
2022-12-06T12:26:40.617Z,6.18
2022-12-06T12:29:30.782Z,5.93
2022-12-06T12:32:20.731Z,5.40
2022-12-06T12:35:20.313Z,5.47
2022-12-06T12:38:10.034Z,6.60
2022-12-06T12:41:03.441Z,6.55
2022-12-06T12:47:19.932Z,6.25
2022-12-06T12:50:13.746Z,6.53
2022-12-06T12:53:04.356Z,6.60
2022-12-06T12:56:14.593Z,6.80
2022-12-06T12:59:13.918Z,6.60
2022-12-06T13:02:22.200Z,6.65
2022-12-06T13:05:35.595Z,6.10
2022-12-06T13:08:34.667Z,6.60
2022-12-06T13:11:25.787Z,6.00
2022-12-06T13:14:22.439Z,6.20
2022-12-06T13:17:13.502Z,6.57
2022-12-06T13:20:19.238Z,6.78
2022-12-06T13:23:15.699Z,7.00
2022-12-06T13:26:15.080Z,6.40
2022-12-06T13:29:28.451Z,6.80
2022-12-06T13:32:22.225Z,6.78
2022-12-06T13:38:20.021Z,7.15
2022-12-06T13:41:54.448Z,7.13
2022-12-06T13:44:47.625Z,6.10
2022-12-06T13:47:39.124Z,7.22
2022-12-06T13:50:32.139Z,6.63
2022-12-06T13:53:25.343Z,6.80
2022-12-06T13:56:30.714Z,6.53
2022-12-06T13:59:20.666Z,6.28
2022-12-06T14:02:44.855Z,6.25
2022-12-06T14:06:00.988Z,6.50
2022-12-06T14:08:59.463Z,7.03
2022-12-06T14:11:50.209Z,7.57
2022-12-06T14:14:40.398Z,6.53
2022-12-06T14:20:54.485Z,7.60
2022-12-06T14:23:48.475Z,7.20
2022-12-06T14:27:11.645Z,7.55
2022-12-06T14:30:08.182Z,7.43
2022-12-06T14:32:59.335Z,7.57
2022-12-06T14:35:54.032Z,6.93
2022-12-06T14:38:52.129Z,7.35
2022-12-06T14:42:10.476Z,7.72
2022-12-06T14:45:02.725Z,6.90
2022-12-06T14:47:53.604Z,7.50
2022-12-06T14:50:50.078Z,7.63
2022-12-06T14:53:39.939Z,7.25
2022-12-06T14:56:36.380Z,7.05
2022-12-06T15:00:12.760Z,7.53
2022-12-06T15:02:40.068Z,7.07
2022-12-06T15:05:41.482Z,7.83
2022-12-06T15:08:36.074Z,7.22
2022-12-06T15:11:53.530Z,7.75
2022-12-06T15:14:49.517Z,8.30
2022-12-06T15:17:41.091Z,7.78
2022-12-06T15:20:31.192Z,8.60
2022-12-06T15:23:33.602Z,8.00
2022-12-06T15:26:24.699Z,8.13
2022-12-06T15:29:15.385Z,9.65
2022-12-06T15:32:06.698Z,8.15
2022-12-06T15:34:56.649Z,9.10
2022-12-06T15:37:50.287Z,8.38
2022-12-06T15:40:42.346Z,8.65
2022-12-06T15:43:34.706Z,10.13
2022-12-06T15:46:27.157Z,11.38
2022-12-06T15:49:20.761Z,9.25
2022-12-06T15:52:16.155Z,7.47
2022-12-06T15:55:06.871Z,8.80
2022-12-06T15:57:57.142Z,9.40
2022-12-06T16:00:47.678Z,8.23
2022-12-06T16:03:37.927Z,8.30
2022-12-06T16:06:29.418Z,9.05
2022-12-06T16:09:19.770Z,9.75
2022-12-06T16:12:10.276Z,8.63
2022-12-06T16:15:00.607Z,8.82
2022-12-06T16:17:50.982Z,8.70
2022-12-06T16:20:41.343Z,10.02
2022-12-06T16:24:12.338Z,12.32
2022-12-06T16:27:00.784Z,11.00
2022-12-06T16:29:50.787Z,10.90
2022-12-06T16:32:40.687Z,10.35
2022-12-06T16:35:31.367Z,8.93
2022-12-06T16:38:23.167Z,9.00
2022-12-06T16:41:32.545Z,8.80
2022-12-06T16:44:23.030Z,8.40
2022-12-06T16:47:13.162Z,9.43
2022-12-06T16:50:04.120Z,8.63
2022-12-06T16:52:54.664Z,8.65
2022-12-06T16:55:44.860Z,9.00
2022-12-06T16:58:35.280Z,8.02
2022-12-06T17:01:29.661Z,7.82
2022-12-06T17:04:20.693Z,7.90
2022-12-06T17:07:11.065Z,9.60
2022-12-06T17:10:01.130Z,6.97
2022-12-06T17:12:51.131Z,7.70
2022-12-06T17:15:41.367Z,8.10
2022-12-06T17:18:31.417Z,7.05
2022-12-06T17:21:21.745Z,7.70
2022-12-06T17:24:12.870Z,7.45
2022-12-06T17:27:03.002Z,7.10
2022-12-06T17:29:53.040Z,6.55
2022-12-06T17:32:43.330Z,6.38
2022-12-06T17:35:36.162Z,5.80
2022-12-06T17:38:29.417Z,6.95
2022-12-06T17:41:40.437Z,5.97
2022-12-06T17:44:30.496Z,6.50
2022-12-06T17:47:20.919Z,7.07
2022-12-06T17:50:10.956Z,6.68
2022-12-06T17:53:01.283Z,6.38
2022-12-06T17:55:51.461Z,8.13
2022-12-06T17:58:41.287Z,8.98
2022-12-06T18:01:58.073Z,8.93
2022-12-06T18:04:43.818Z,9.52
2022-12-06T18:07:34.181Z,9.63
2022-12-06T18:10:24.183Z,8.13
2022-12-06T18:13:13.938Z,8.23
2022-12-06T18:16:15.233Z,7.88
2022-12-06T18:19:08.970Z,7.78
2022-12-06T18:24:49.614Z,7.95
2022-12-06T18:27:39.674Z,7.97
2022-12-06T18:30:29.610Z,19.40
2022-12-06T18:33:22.568Z,8.63
2022-12-06T18:36:14.997Z,10.90
2022-12-06T18:39:10.972Z,8.45
2022-12-06T18:42:04.709Z,7.82
2022-12-06T18:44:58.248Z,8.20
2022-12-06T18:47:49.342Z,8.07
2022-12-06T18:50:40.674Z,7.88
2022-12-06T18:53:30.576Z,8.05
2022-12-06T18:56:22.773Z,8.38
2022-12-06T18:59:12.862Z,8.40
2022-12-06T19:02:03.101Z,8.07
2022-12-06T19:04:53.212Z,8.23
2022-12-06T19:07:44.589Z,8.23
2022-12-06T19:10:35.163Z,9.00
2022-12-06T19:13:24.882Z,9.55
2022-12-06T19:16:15.018Z,10.18
2022-12-06T19:19:14.273Z,10.48
2022-12-06T19:22:07.550Z,10.25
2022-12-06T19:24:57.696Z,10.38
2022-12-06T19:27:48.190Z,10.57
2022-12-06T19:30:38.356Z,9.80
2022-12-06T19:33:29.643Z,10.68
2022-12-06T19:36:24.017Z,11.25
2022-12-06T19:39:14.542Z,11.38
2022-12-06T19:42:23.598Z,11.40
2022-12-06T19:45:13.637Z,11.45
2022-12-06T19:48:03.560Z,11.40
2022-12-06T19:50:53.756Z,10.48
2022-12-06T19:53:44.010Z,10.43
2022-12-06T19:56:35.321Z,10.93
2022-12-06T19:59:28.847Z,10.70
2022-12-06T20:02:19.010Z,10.63
2022-12-06T20:05:08.944Z,10.82
2022-12-06T20:07:59.342Z,11.45
2022-12-06T20:10:49.343Z,10.40
2022-12-06T20:13:39.493Z,11.07
2022-12-06T20:16:30.268Z,11.93
2022-12-06T20:19:22.588Z,11.40
2022-12-06T20:22:13.842Z,11.25
2022-12-06T20:25:04.359Z,11.75
2022-12-06T20:27:55.895Z,10.52
2022-12-06T20:30:46.079Z,10.85
2022-12-06T20:33:36.176Z,10.43
2022-12-06T20:36:27.102Z,10.30
2022-12-06T20:39:24.163Z,12.80
2022-12-06T20:42:13.778Z,12.73
2022-12-06T20:45:04.031Z,12.07
2022-12-06T20:47:54.127Z,11.50
2022-12-06T20:50:44.211Z,11.90
2022-12-06T20:53:34.407Z,11.00
2022-12-06T20:56:27.705Z,11.55
2022-12-06T20:59:17.655Z,11.27
2022-12-06T21:02:12.133Z,11.40
2022-12-06T21:05:02.516Z,11.32
2022-12-06T21:07:52.346Z,11.13
2022-12-06T21:11:13.947Z,11.45
2022-12-06T21:13:54.010Z,11.50
2022-12-06T21:16:44.372Z,10.98
2022-12-06T21:19:34.522Z,10.77
2022-12-06T21:22:24.909Z,11.38
2022-12-06T21:25:14.930Z,11.52
2022-12-06T21:28:05.203Z,10.38
2022-12-06T21:30:56.224Z,10.48
2022-12-06T21:33:46.142Z,11.27
2022-12-06T21:36:37.105Z,11.20
2022-12-06T21:39:27.141Z,9.60
2022-12-06T21:42:20.811Z,10.50
2022-12-06T21:45:11.103Z,10.13
2022-12-06T21:48:01.063Z,9.68
2022-12-06T21:50:51.226Z,10.25
2022-12-06T21:53:41.246Z,9.95
2022-12-06T21:56:32.702Z,9.52
2022-12-06T21:59:23.938Z,9.45
2022-12-06T22:02:14.389Z,9.98
2022-12-06T22:05:05.202Z,9.77
2022-12-06T22:07:55.220Z,10.60
2022-12-06T22:10:45.639Z,10.75
2022-12-06T22:13:36.085Z,9.85
2022-12-06T22:16:26.199Z,9.90
2022-12-06T22:19:16.741Z,10.48
2022-12-06T22:22:07.211Z,9.90
2022-12-06T22:24:57.228Z,10.43
2022-12-06T22:27:47.172Z,10.13
2022-12-06T22:30:37.093Z,10.07
2022-12-06T22:33:26.996Z,9.88
2022-12-06T22:36:17.921Z,10.35
2022-12-06T22:39:08.077Z,10.73
2022-12-06T22:41:57.910Z,9.95
2022-12-06T22:44:47.650Z,11.00
2022-12-06T22:47:37.533Z,9.70
2022-12-06T22:50:27.536Z,10.23
2022-12-06T22:53:17.308Z,10.00
2022-12-06T22:56:08.298Z,10.00
2022-12-06T22:59:00.303Z,10.93
2022-12-06T23:01:50.426Z,10.32
2022-12-06T23:04:40.779Z,9.80
2022-12-06T23:07:30.654Z,10.30
2022-12-06T23:10:20.507Z,10.70
2022-12-06T23:13:10.285Z,10.23
2022-12-06T23:16:03.317Z,10.02
2022-12-06T23:18:54.487Z,9.73
2022-12-06T23:21:44.845Z,10.23
2022-12-06T23:24:34.855Z,10.27
2022-12-06T23:27:24.863Z,10.68
2022-12-06T23:30:15.122Z,10.50
2022-12-06T23:33:05.378Z,10.65
2022-12-06T23:36:06.862Z,11.15
2022-12-06T23:38:56.744Z,9.93
2022-12-06T23:41:46.701Z,10.60
2022-12-06T23:44:38.699Z,9.80
2022-12-06T23:47:28.778Z,10.35
2022-12-06T23:50:18.677Z,10.40
2022-12-06T23:53:08.563Z,10.60
2022-12-06T23:55:59.984Z,10.95
2022-12-06T23:58:50.761Z,10.20
